createdAt,value
2022-08-25T00:02:55.450Z,12.80
2022-08-25T00:06:03.459Z,12.20
2022-08-25T00:09:15.627Z,12.60
2022-08-25T00:12:22.348Z,13.60
2022-08-25T00:15:28.763Z,9.90
2022-08-25T00:18:37.534Z,12.50
2022-08-25T00:21:43.540Z,11.97
2022-08-25T00:24:53.325Z,11.20
2022-08-25T00:27:59.384Z,11.27
2022-08-25T00:31:08.073Z,12.50
2022-08-25T00:34:16.841Z,13.83
2022-08-25T00:37:23.727Z,14.37
2022-08-25T00:40:33.443Z,10.30
2022-08-25T00:43:49.265Z,14.70
2022-08-25T00:46:57.252Z,11.93
2022-08-25T00:50:07.133Z,15.00
2022-08-25T00:53:14.938Z,12.80
2022-08-25T00:56:25.887Z,11.57
2022-08-25T00:59:32.377Z,15.60
2022-08-25T01:02:39.238Z,9.83
2022-08-25T01:05:46.929Z,12.80
2022-08-25T01:08:54.880Z,10.50
2022-08-25T01:12:04.405Z,15.00
2022-08-25T01:15:13.859Z,14.70
2022-08-25T01:18:21.019Z,15.40
2022-08-25T01:21:34.536Z,11.80
2022-08-25T01:24:44.029Z,14.63
2022-08-25T01:27:50.789Z,11.80
2022-08-25T01:30:56.882Z,10.33
2022-08-25T01:34:04.281Z,12.17
2022-08-25T01:37:15.904Z,10.00
2022-08-25T01:40:23.340Z,13.53
2022-08-25T01:43:34.757Z,14.63
2022-08-25T01:46:41.739Z,14.07
2022-08-25T01:49:47.845Z,11.20
2022-08-25T01:53:03.231Z,12.30
2022-08-25T01:56:13.125Z,13.67
2022-08-25T01:59:24.021Z,15.53
2022-08-25T02:02:31.706Z,10.90
2022-08-25T02:05:39.849Z,18.60
2022-08-25T02:08:49.268Z,12.00
2022-08-25T02:11:57.078Z,15.90
2022-08-25T02:15:03.235Z,16.10
2022-08-25T02:18:10.857Z,14.60
2022-08-25T02:21:17.092Z,12.23
2022-08-25T02:24:27.376Z,10.10
2022-08-25T02:27:33.541Z,10.13
2022-08-25T02:30:42.753Z,16.27
2022-08-25T02:33:48.983Z,9.27
2022-08-25T02:36:56.210Z,12.80
2022-08-25T02:40:07.707Z,14.70
2022-08-25T02:43:13.661Z,14.40
2022-08-25T02:46:23.019Z,12.07
2022-08-25T02:49:29.014Z,11.57
2022-08-25T02:52:35.872Z,11.13
2022-08-25T02:55:44.767Z,10.03
2022-08-25T02:58:51.618Z,13.50
2022-08-25T03:01:57.494Z,11.33
2022-08-25T03:05:04.553Z,11.47
2022-08-25T03:08:12.365Z,11.70
2022-08-25T03:11:22.471Z,12.30
2022-08-25T03:14:28.344Z,10.50
2022-08-25T03:17:36.014Z,14.93
2022-08-25T03:20:43.298Z,11.00
2022-08-25T03:23:50.045Z,11.50
2022-08-25T03:26:56.558Z,9.67
2022-08-25T03:30:03.711Z,12.57
2022-08-25T03:33:09.615Z,12.33
2022-08-25T03:36:16.774Z,11.07
2022-08-25T03:39:25.923Z,12.40
2022-08-25T03:42:35.571Z,13.67
2022-08-25T03:45:43.536Z,13.17
2022-08-25T03:48:50.435Z,13.83
2022-08-25T03:51:58.028Z,11.83
2022-08-25T03:55:07.115Z,12.83
2022-08-25T03:58:15.851Z,12.20
2022-08-25T04:01:23.132Z,10.13
2022-08-25T04:04:29.057Z,14.93
2022-08-25T04:07:35.866Z,13.10
2022-08-25T04:10:41.850Z,20.23
2022-08-25T04:13:52.121Z,12.40
2022-08-25T04:16:58.151Z,10.33
2022-08-25T04:20:06.973Z,13.57
2022-08-25T04:23:13.828Z,13.73
2022-08-25T04:26:28.322Z,16.47
2022-08-25T04:29:37.287Z,16.50
2022-08-25T04:32:44.037Z,11.77
2022-08-25T04:35:52.012Z,14.53
2022-08-25T04:38:58.951Z,20.30
2022-08-25T04:42:06.273Z,12.27
2022-08-25T04:45:15.918Z,12.83
2022-08-25T04:48:22.211Z,12.83
2022-08-25T04:51:31.539Z,11.57
2022-08-25T04:54:37.575Z,10.30
2022-08-25T04:57:44.346Z,10.63
2022-08-25T05:00:53.406Z,15.40
2022-08-25T05:04:03.239Z,18.03
2022-08-25T05:07:09.668Z,14.90
2022-08-25T05:10:17.244Z,21.00
2022-08-25T05:13:23.759Z,20.00
2022-08-25T05:16:34.441Z,16.00
2022-08-25T05:19:40.777Z,16.63
2022-08-25T05:22:49.198Z,17.38
2022-08-25T05:25:57.271Z,18.03
2022-08-25T05:29:07.918Z,19.80
2022-08-25T05:32:16.687Z,18.43
2022-08-25T05:35:24.997Z,16.73
2022-08-25T05:38:31.707Z,11.07
2022-08-25T05:41:38.591Z,15.40
2022-08-25T05:44:44.752Z,15.02
2022-08-25T05:47:54.421Z,20.35
2022-08-25T05:51:03.038Z,21.13
2022-08-25T05:54:10.009Z,16.48
2022-08-25T05:57:15.970Z,17.73
2022-08-25T06:00:23.022Z,17.40
2022-08-25T06:03:29.367Z,21.13
2022-08-25T06:06:36.565Z,14.15
2022-08-25T06:09:46.445Z,18.60
2022-08-25T06:12:53.254Z,14.40
2022-08-25T06:16:09.380Z,12.20
2022-08-25T06:19:19.153Z,18.55
2022-08-25T06:22:25.627Z,13.57
2022-08-25T06:25:34.123Z,16.35
2022-08-25T06:28:40.140Z,19.92
2022-08-25T06:31:50.178Z,17.35
2022-08-25T06:34:59.206Z,19.80
2022-08-25T06:38:06.953Z,15.30
2022-08-25T06:41:14.184Z,20.70
2022-08-25T06:44:20.876Z,27.35
2022-08-25T06:47:27.495Z,20.75
2022-08-25T06:50:37.038Z,22.60
2022-08-25T06:53:43.231Z,23.33
2022-08-25T06:56:50.047Z,21.52
2022-08-25T06:59:56.710Z,21.27
2022-08-25T07:03:07.168Z,19.08
2022-08-25T07:06:16.591Z,20.23
2022-08-25T07:09:25.288Z,22.27
2022-08-25T07:12:31.211Z,16.13
2022-08-25T07:15:41.696Z,26.33
2022-08-25T07:18:49.079Z,18.88
2022-08-25T07:21:58.635Z,25.40
2022-08-25T07:25:06.107Z,25.35
2022-08-25T07:28:12.968Z,26.23
2022-08-25T07:31:19.554Z,22.50
2022-08-25T07:34:56.611Z,34.45
2022-08-25T07:38:06.911Z,20.08
2022-08-25T07:41:17.282Z,26.77
2022-08-25T07:44:24.756Z,30.75
2022-08-25T07:47:35.155Z,25.80
2022-08-25T07:50:45.493Z,24.23
2022-08-25T07:53:55.274Z,20.00
2022-08-25T07:57:04.171Z,22.92
2022-08-25T08:00:12.189Z,23.27
2022-08-25T08:03:29.394Z,21.60
2022-08-25T08:06:45.050Z,24.75
2022-08-25T08:10:18.961Z,28.38
2022-08-25T08:13:23.847Z,26.10
2022-08-25T08:16:33.802Z,22.00
2022-08-25T08:19:44.826Z,26.75
2022-08-25T08:22:51.344Z,26.98
2022-08-25T08:26:01.172Z,27.05
2022-08-25T08:29:07.949Z,28.98
2022-08-25T08:32:18.775Z,26.75
2022-08-25T08:35:24.779Z,28.42
2022-08-25T08:38:32.350Z,26.27
2022-08-25T08:42:11.535Z,25.98
2022-08-25T08:45:40.654Z,25.67
2022-08-25T08:49:04.358Z,32.33
2022-08-25T08:52:13.358Z,26.63
2022-08-25T08:55:30.635Z,28.50
2022-08-25T08:58:45.569Z,29.30
2022-08-25T09:02:03.143Z,28.15
2022-08-25T09:05:15.151Z,33.53
2022-08-25T09:08:21.540Z,30.48
2022-08-25T09:11:40.044Z,34.53
2022-08-25T09:15:12.573Z,29.80
2022-08-25T09:18:30.613Z,32.63
2022-08-25T09:21:43.884Z,38.55
2022-08-25T09:25:00.132Z,27.98
2022-08-25T09:28:11.433Z,31.65
2022-08-25T09:31:29.587Z,35.40
2022-08-25T09:34:37.764Z,26.60
2022-08-25T09:37:44.776Z,30.83
2022-08-25T09:40:53.808Z,30.65
2022-08-25T09:44:03.233Z,32.05
2022-08-25T09:47:24.543Z,33.72
2022-08-25T09:50:36.159Z,32.40
2022-08-25T09:53:55.101Z,30.48
2022-08-25T09:57:08.557Z,30.48
2022-08-25T10:00:23.413Z,24.35
2022-08-25T10:03:36.348Z,33.90
2022-08-25T10:06:48.240Z,32.55
2022-08-25T10:09:57.845Z,30.85
2022-08-25T10:13:07.075Z,24.08
2022-08-25T10:16:27.005Z,20.27
2022-08-25T10:19:38.742Z,28.30
2022-08-25T10:22:50.297Z,29.35
2022-08-25T10:26:01.832Z,28.83
2022-08-25T10:29:27.063Z,24.95
2022-08-25T10:32:43.370Z,27.65
2022-08-25T10:36:03.088Z,32.20
2022-08-25T10:39:33.869Z,23.77
2022-08-25T10:42:48.500Z,24.30
2022-08-25T10:46:10.299Z,25.10
2022-08-25T10:49:23.094Z,23.17
2022-08-25T10:52:40.119Z,24.40
2022-08-25T10:55:56.277Z,18.20
2022-08-25T10:59:42.767Z,26.35
2022-08-25T11:03:12.044Z,15.77
2022-08-25T11:06:23.560Z,21.85
2022-08-25T11:09:40.186Z,23.55
2022-08-25T11:12:49.061Z,29.30
2022-08-25T11:16:17.183Z,25.80
2022-08-25T11:19:27.465Z,25.65
2022-08-25T11:22:40.881Z,19.98
2022-08-25T11:25:54.134Z,22.50
2022-08-25T11:29:11.360Z,20.83
2022-08-25T11:32:22.792Z,24.70
2022-08-25T11:35:33.064Z,24.70
2022-08-25T11:38:51.105Z,24.08
2022-08-25T11:42:17.771Z,19.67
2022-08-25T11:45:44.120Z,23.38
2022-08-25T11:49:04.744Z,17.27
2022-08-25T11:52:46.147Z,15.50
2022-08-25T11:55:56.227Z,18.20
2022-08-25T11:59:06.969Z,13.35
2022-08-25T12:02:34.236Z,27.73
2022-08-25T12:06:21.635Z,13.70
2022-08-25T12:09:28.621Z,18.55
2022-08-25T12:12:41.598Z,19.40
2022-08-25T12:16:03.103Z,22.33
2022-08-25T12:19:34.041Z,21.80
2022-08-25T12:23:03.071Z,17.45
2022-08-25T12:26:17.785Z,21.40
2022-08-25T12:29:33.565Z,20.13
2022-08-25T12:32:58.729Z,16.17
2022-08-25T12:36:11.126Z,13.32
2022-08-25T12:39:24.215Z,18.55
2022-08-25T12:42:38.340Z,16.52
2022-08-25T12:45:49.364Z,14.90
2022-08-25T12:49:04.151Z,21.65
2022-08-25T12:52:15.243Z,19.98
2022-08-25T12:55:25.173Z,15.80
2022-08-25T12:58:58.981Z,17.60
2022-08-25T13:02:35.307Z,21.77
2022-08-25T13:06:13.147Z,18.33
2022-08-25T13:10:01.038Z,21.95
2022-08-25T13:13:16.500Z,16.88
2022-08-25T13:16:29.669Z,16.92
2022-08-25T13:19:36.065Z,22.73
2022-08-25T13:22:48.524Z,18.83
2022-08-25T13:25:58.367Z,13.25
2022-08-25T13:29:17.967Z,17.73
2022-08-25T13:32:32.370Z,18.58
2022-08-25T13:35:41.230Z,15.48
2022-08-25T13:38:57.624Z,17.85
2022-08-25T13:42:07.474Z,20.17
2022-08-25T13:45:18.358Z,19.13
2022-08-25T13:48:36.569Z,25.40
2022-08-25T13:51:54.767Z,18.95
2022-08-25T13:55:06.143Z,20.33
2022-08-25T13:58:24.332Z,20.20
2022-08-25T14:01:48.721Z,16.70
2022-08-25T14:04:55.681Z,22.80
2022-08-25T14:08:16.117Z,18.00
2022-08-25T14:11:37.621Z,13.48
2022-08-25T14:14:46.021Z,16.85
2022-08-25T14:18:06.554Z,22.65
2022-08-25T14:21:14.727Z,19.98
2022-08-25T14:24:22.881Z,18.40
2022-08-25T14:27:38.746Z,15.73
2022-08-25T14:30:52.485Z,16.50
2022-08-25T14:34:03.062Z,14.57
2022-08-25T14:37:15.594Z,19.88
2022-08-25T14:40:23.130Z,20.55
2022-08-25T14:43:32.386Z,19.45
2022-08-25T14:46:46.217Z,15.02
2022-08-25T14:49:52.840Z,15.40
2022-08-25T14:53:00.093Z,15.40
2022-08-25T14:56:10.298Z,13.95
2022-08-25T14:59:20.145Z,16.30
2022-08-25T15:02:29.548Z,18.45
2022-08-25T15:05:37.640Z,16.23
2022-08-25T15:08:59.554Z,14.23
2022-08-25T15:12:07.191Z,11.52
2022-08-25T15:15:17.664Z,15.77
2022-08-25T15:18:26.065Z,18.10
2022-08-25T15:21:32.456Z,17.35
2022-08-25T15:24:39.294Z,16.00
2022-08-25T15:27:45.712Z,17.50
2022-08-25T15:30:55.978Z,16.83
2022-08-25T15:34:03.042Z,18.10
2022-08-25T15:37:12.104Z,18.42
2022-08-25T15:40:19.188Z,15.20
2022-08-25T15:43:26.370Z,12.13
2022-08-25T15:46:35.732Z,14.60
2022-08-25T15:49:43.377Z,12.63
2022-08-25T15:52:49.774Z,20.25
2022-08-25T15:55:57.695Z,13.27
2022-08-25T15:59:10.534Z,12.95
2022-08-25T16:02:20.186Z,17.15
2022-08-25T16:05:26.359Z,12.88
2022-08-25T16:08:34.077Z,15.77
2022-08-25T16:11:43.813Z,14.55
2022-08-25T16:14:51.156Z,12.30
2022-08-25T16:18:04.769Z,12.68
2022-08-25T16:21:13.199Z,15.93
2022-08-25T16:24:20.802Z,14.27
2022-08-25T16:27:28.035Z,16.80
2022-08-25T16:30:50.256Z,16.05
2022-08-25T16:34:03.150Z,16.00
2022-08-25T16:37:09.338Z,18.02
2022-08-25T16:40:19.151Z,14.43
2022-08-25T16:43:26.645Z,18.80
2022-08-25T16:46:34.031Z,14.18
2022-08-25T16:49:43.463Z,17.88
2022-08-25T16:53:08.071Z,15.50
2022-08-25T16:56:14.371Z,19.85
2022-08-25T16:59:21.387Z,20.75
2022-08-25T17:02:29.999Z,22.52
2022-08-25T17:05:45.734Z,25.02
2022-08-25T17:08:52.738Z,19.55
2022-08-25T17:11:59.785Z,15.65
2022-08-25T17:15:08.115Z,19.42
2022-08-25T17:18:14.922Z,25.63
2022-08-25T17:21:27.053Z,23.60
2022-08-25T17:24:33.982Z,19.45
2022-08-25T17:27:41.308Z,21.58
2022-08-25T17:30:49.659Z,18.35
2022-08-25T17:33:56.221Z,27.15
2022-08-25T17:37:07.018Z,24.88
2022-08-25T17:40:14.598Z,23.65
2022-08-25T17:43:21.378Z,26.33
2022-08-25T17:46:27.562Z,19.60
2022-08-25T17:49:34.613Z,20.88
2022-08-25T17:52:43.908Z,20.95
2022-08-25T17:55:51.452Z,17.52
2022-08-25T17:58:59.109Z,20.48
2022-08-25T18:02:06.733Z,20.90
2022-08-25T18:05:14.301Z,20.08
2022-08-25T18:08:32.085Z,15.73
2022-08-25T18:11:41.366Z,15.65
2022-08-25T18:14:49.391Z,19.58
2022-08-25T18:17:57.523Z,21.33
2022-08-25T18:21:06.887Z,17.13
2022-08-25T18:24:16.825Z,21.98
2022-08-25T18:27:23.778Z,16.20
2022-08-25T18:30:32.006Z,22.92
2022-08-25T18:33:41.838Z,16.13
2022-08-25T18:36:47.884Z,17.58
2022-08-25T18:40:13.846Z,18.92
2022-08-25T18:43:19.917Z,34.30
2022-08-25T18:46:27.448Z,23.20
2022-08-25T18:49:33.486Z,25.73
2022-08-25T18:52:40.739Z,22.33
2022-08-25T18:55:49.569Z,25.25
2022-08-25T18:58:56.482Z,18.77
2022-08-25T19:02:03.198Z,22.30
2022-08-25T19:05:10.807Z,23.42
2022-08-25T19:08:21.940Z,20.17
2022-08-25T19:11:32.115Z,23.75
2022-08-25T19:14:39.278Z,24.23
2022-08-25T19:17:46.831Z,23.95
2022-08-25T19:20:53.116Z,21.58
2022-08-25T19:23:59.875Z,22.15
2022-08-25T19:27:12.958Z,19.92
2022-08-25T19:30:22.007Z,23.83
2022-08-25T19:33:42.058Z,20.42
2022-08-25T19:36:51.620Z,28.33
2022-08-25T19:39:58.322Z,20.63
2022-08-25T19:43:10.299Z,23.00
2022-08-25T19:46:19.880Z,25.15
2022-08-25T19:49:31.441Z,21.52
2022-08-25T19:52:40.094Z,21.70
2022-08-25T19:55:50.103Z,28.02
2022-08-25T19:58:59.193Z,18.80
2022-08-25T20:02:08.233Z,22.92
2022-08-25T20:05:23.676Z,21.10
2022-08-25T20:08:31.227Z,22.73
2022-08-25T20:11:38.125Z,20.77
2022-08-25T20:14:48.808Z,20.65
2022-08-25T20:17:56.642Z,20.45
2022-08-25T20:21:03.663Z,18.13
2022-08-25T20:24:26.620Z,26.52
2022-08-25T20:27:41.195Z,21.98
2022-08-25T20:30:50.164Z,29.25
2022-08-25T20:34:02.835Z,30.35
2022-08-25T20:37:09.197Z,25.67
2022-08-25T20:40:20.788Z,23.73
2022-08-25T20:43:31.940Z,21.35
2022-08-25T20:46:41.744Z,24.45
2022-08-25T20:49:50.347Z,24.60
2022-08-25T20:52:59.372Z,20.20
2022-08-25T20:56:11.263Z,24.80
2022-08-25T20:59:18.430Z,22.88
2022-08-25T21:02:29.612Z,16.77
2022-08-25T21:05:37.109Z,19.63
2022-08-25T21:08:45.154Z,13.85
2022-08-25T21:11:55.480Z,23.85
2022-08-25T21:15:03.155Z,17.60
2022-08-25T21:18:12.693Z,19.40
2022-08-25T21:21:19.063Z,12.45
2022-08-25T21:24:26.102Z,14.65
2022-08-25T21:27:32.011Z,16.42
2022-08-25T21:30:44.788Z,17.95
2022-08-25T21:33:57.103Z,22.00
2022-08-25T21:37:04.165Z,18.17
2022-08-25T21:40:11.153Z,19.77
2022-08-25T21:43:18.716Z,13.98
2022-08-25T21:46:26.495Z,18.30
2022-08-25T21:49:37.235Z,19.67
2022-08-25T21:52:43.815Z,18.70
2022-08-25T21:55:50.641Z,22.13
2022-08-25T21:58:56.744Z,20.05
2022-08-25T22:02:07.745Z,19.75
2022-08-25T22:05:16.967Z,15.00
2022-08-25T22:08:23.956Z,17.33
2022-08-25T22:11:37.128Z,20.95
2022-08-25T22:14:43.911Z,18.40
2022-08-25T22:17:50.571Z,17.17
2022-08-25T22:21:00.762Z,18.90
2022-08-25T22:24:13.989Z,22.70
2022-08-25T22:27:23.286Z,15.98
2022-08-25T22:30:30.031Z,22.38
2022-08-25T22:33:37.532Z,17.92
2022-08-25T22:36:49.935Z,24.95
2022-08-25T22:39:57.423Z,17.88
2022-08-25T22:43:03.674Z,23.50
2022-08-25T22:46:13.559Z,17.65
2022-08-25T22:49:23.155Z,16.52
2022-08-25T22:52:33.760Z,19.17
2022-08-25T22:55:46.438Z,17.63
2022-08-25T22:58:53.333Z,22.07
2022-08-25T23:01:59.392Z,21.65
2022-08-25T23:05:07.994Z,20.05
2022-08-25T23:08:16.885Z,18.33
2022-08-25T23:11:43.675Z,22.13
2022-08-25T23:14:50.520Z,24.08
2022-08-25T23:17:57.336Z,17.50
2022-08-25T23:21:24.284Z,17.73
2022-08-25T23:24:34.643Z,26.88
2022-08-25T23:27:40.578Z,19.38
2022-08-25T23:30:47.839Z,24.30
2022-08-25T23:34:03.695Z,19.23
2022-08-25T23:37:10.884Z,18.65
2022-08-25T23:40:19.780Z,24.97
2022-08-25T23:43:27.186Z,19.63
2022-08-25T23:46:35.218Z,21.70
2022-08-25T23:49:42.326Z,16.60
2022-08-25T23:52:48.903Z,21.93
2022-08-25T23:56:00.744Z,17.53
2022-08-25T23:59:08.873Z,17.13
